Time;durP1;ratioP1;P1;durP2;ratioP2;P2;SDS_P1;SDS_P2;PMS_P1;PMS_P2;Temp;Humidity;BMP_temperature;BMP_pressure;BME280_temperature;BME280_humidity;BME280_pressure;Samples;Min_cycle;Max_cycle;Signal;HPM_P1;HPM_P2
2022/08/09 21:56:16;;;;;;;0.30;0.30;;;21.10;86.40;;;;;;5010896;28;20052;-91
2022/08/09 21:58:42;;;;;;;2.17;0.50;;;21.10;86.50;;;;;;5012418;28;20161;-92
2022/08/09 22:01:08;;;;;;;0.32;0.30;;;21.10;86.90;;;;;;4980491;28;20049;-91
2022/08/09 22:03:34;;;;;;;0.60;0.30;;;21.00;87.00;;;;;;4989711;28;20042;-91
2022/08/09 22:06:00;;;;;;;0.40;0.30;;;20.90;87.20;;;;;;4995755;28;20029;-92
2022/08/09 22:08:26;;;;;;;0.55;0.30;;;20.90;87.40;;;;;;4995971;28;20037;-92
2022/08/09 22:10:54;;;;;;;1.08;0.40;;;20.80;87.60;;;;;;4996571;28;20052;-90
2022/08/09 22:13:20;;;;;;;0.25;0.25;;;20.80;87.70;;;;;;4989172;28;20373;-91
2022/08/09 22:15:46;;;;;;;2.95;0.50;;;20.70;87.90;;;;;;4982021;28;20104;-89
2022/08/09 22:18:16;;;;;;;0.85;0.40;;;20.70;88.20;;;;;;4981091;28;20050;-89
2022/08/09 22:20:41;;;;;;;0.57;0.52;;;20.70;88.40;;;;;;4985701;28;20046;-89
2022/08/09 22:23:07;;;;;;;1.25;0.30;;;20.60;88.50;;;;;;4999251;28;20052;-87
2022/08/09 22:25:33;;;;;;;0.47;0.35;;;20.60;88.60;;;;;;4981095;28;20484;-88
2022/08/09 22:27:58;;;;;;;0.30;0.30;;;20.60;88.60;;;;;;4983583;28;20370;-88
2022/08/09 22:30:24;;;;;;;0.60;0.32;;;20.50;88.70;;;;;;4983724;28;20073;-89
2022/08/09 22:32:50;;;;;;;0.30;0.30;;;20.50;88.80;;;;;;4980850;28;20085;-89
2022/08/09 22:35:15;;;;;;;0.93;0.35;;;20.50;89.00;;;;;;4994173;28;20038;-89
2022/08/09 22:37:41;;;;;;;3.60;0.57;;;20.40;89.00;;;;;;4978409;28;20157;-89
2022/08/09 22:40:10;;;;;;;0.50;0.40;;;20.40;89.20;;;;;;4977819;28;20034;-89
2022/08/09 22:42:37;;;;;;;0.95;0.50;;;20.40;89.50;;;;;;4977731;28;20034;-90
2022/08/09 22:45:03;;;;;;;0.98;0.50;;;20.30;89.50;;;;;;4986444;28;20039;-89
2022/08/09 22:47:32;;;;;;;0.60;0.45;;;20.30;89.80;;;;;;4985340;28;20057;-91
2022/08/09 22:49:57;;;;;;;1.45;0.47;;;20.20;89.80;;;;;;4980303;28;20046;-90
2022/08/09 22:52:23;;;;;;;0.75;0.50;;;20.20;90.00;;;;;;4986789;28;20026;-90
2022/08/09 22:54:49;;;;;;;0.70;0.50;;;20.20;90.00;;;;;;4985044;28;20077;-90
2022/08/09 22:57:17;;;;;;;2.40;0.70;;;20.20;90.00;;;;;;4979881;28;20491;-91
2022/08/09 22:59:49;;;;;;;0.90;0.60;;;20.20;90.00;;;;;;4980906;28;20034;-92
2022/08/09 23:02:18;;;;;;;0.80;0.50;;;20.20;90.00;;;;;;4980192;28;20045;-92
2022/08/09 23:04:49;;;;;;;2.33;0.85;;;20.10;90.10;;;;;;4982275;28;20531;-91
2022/08/09 23:09:59;;;;;;;1.10;0.70;;;20.00;90.20;;;;;;5007610;28;20037;-91
2022/08/09 23:12:33;;;;;;;1.30;0.85;;;20.00;90.30;;;;;;4982915;28;20034;-90
2022/08/09 23:15:01;;;;;;;1.40;0.90;;;20.00;90.40;;;;;;4979846;28;20068;-91
2022/08/09 23:17:29;;;;;;;1.25;0.70;;;19.90;90.40;;;;;;4979548;28;20038;-91
2022/08/09 23:20:37;;;;;;;1.90;1.10;;;19.90;90.40;;;;;;4978304;28;20089;-92
2022/08/09 23:23:03;;;;;;;1.50;1.00;;;19.90;90.50;;;;;;4991317;28;20139;-91
2022/08/09 23:25:31;;;;;;;2.05;1.20;;;19.80;90.50;;;;;;4983582;28;20121;-88
2022/08/09 23:27:59;;;;;;;2.40;1.08;;;19.80;90.60;;;;;;4984249;28;20399;-90
2022/08/09 23:30:47;;;;;;;2.17;1.23;;;19.80;90.60;;;;;;4986657;28;20081;-90
2022/08/09 23:33:19;;;;;;;1.73;1.10;;;19.80;90.70;;;;;;4984085;28;20114;-89
2022/08/09 23:35:56;;;;;;;1.50;1.10;;;19.70;90.80;;;;;;4988888;28;20458;-93
2022/08/09 23:38:24;;;;;;;2.15;1.23;;;19.70;90.80;;;;;;5000780;28;20120;-93
2022/08/09 23:40:55;;;;;;;1.15;0.88;;;19.70;90.90;;;;;;5021671;23;20057;-92
2022/08/09 23:43:24;;;;;;;1.70;1.02;;;19.60;91.00;;;;;;5036340;28;20495;-91
2022/08/09 23:45:50;;;;;;;2.30;1.15;;;19.60;91.10;;;;;;5039475;28;20041;-92
2022/08/09 23:48:16;;;;;;;1.20;0.90;;;19.60;91.20;;;;;;5037100;28;20036;-91
2022/08/09 23:50:41;;;;;;;1.67;1.00;;;19.50;91.20;;;;;;5038664;28;20041;-91
2022/08/09 23:53:07;;;;;;;2.58;1.05;;;19.50;91.30;;;;;;5040592;28;20040;-90
2022/08/09 23:55:33;;;;;;;1.13;0.90;;;19.40;91.40;;;;;;5027686;28;20022;-92
2022/08/09 23:57:59;;;;;;;1.75;0.90;;;19.40;91.50;;;;;;5039629;28;20030;-91
